Flight Track Log - Related Links

Times and Time Zones

All times are in EDT time to prevent confusion due to time zone crossing. See the TYR848 flight status page for this flight to view local times or setup timezone preferences in your user account.

Time Position Orientation Groundspeed Altitude Reporting Facility
EDT Latitude Longitude Course Direction KTS MPH feet Rate Location/Type
Tue 09:22:00 AM 41.9461 19.4969 343° North  Level Estimated
Tue 09:23:00 AM 42.0346 19.4592 342° North  Level Estimated
Tue 09:24:00 AM 42.1231 19.4215 342° North  Level Estimated
Tue 09:25:00 AM 42.2116 19.3836 342° North  Level Estimated
Tue 09:26:00 AM 42.3001 19.3457 342° North  Level Estimated
Tue 09:27:00 AM 42.3886 19.3076 342° North  Level Estimated
Tue 09:28:00 AM 42.4770 19.2694 342° North  Level Estimated
Tue 09:29:00 AM 42.5654 19.2312 342° North  Level Estimated
Tue 09:30:00 AM 42.6539 19.1928 342° North  Level Estimated
Tue 09:31:00 AM 42.7423 19.1543 342° North  Level Estimated
Tue 09:32:00 AM 42.8307 19.1157 342° North  Level Estimated
Tue 09:33:00 AM 42.9191 19.0769 342° North  Level Estimated
Tue 09:34:00 AM 43.0075 19.0381 342° North  Level Estimated
Tue 09:35:00 AM 43.0958 18.9992 342° North  Level Estimated
Tue 09:36:00 AM 43.1842 18.9601 342° North  Level Estimated
Tue 09:37:00 AM 43.2725 18.9209 342° North  Level Estimated
Tue 09:38:00 AM 43.3608 18.8817 342° North  Level Estimated
Tue 09:39:00 AM 43.4492 18.8423 342° North  Level Estimated
Tue 09:40:00 AM 43.5374 18.8027 342° North  Level Estimated
Tue 09:41:00 AM 43.6257 18.7631 342° North  Level Estimated
Tue 09:42:00 AM 43.7140 18.7234 342° North  Level Estimated
Tue 09:43:00 AM 43.8023 18.6835 342° North  Level Estimated
Tue 09:44:00 AM 43.8905 18.6435 342° North  Level Estimated
Tue 09:45:00 AM 43.9787 18.6034 342° North  Level Estimated
Tue 09:46:00 AM 44.0669 18.5632 342° North  Level Estimated
Tue 09:47:00 AM 44.1551 18.5229 342° North  Level Estimated
Tue 09:48:00 AM 44.2433 18.4824 342° North  Level Estimated
Tue 09:49:00 AM 44.3315 18.4418 342° North  Level Estimated
Tue 09:50:00 AM 44.4197 18.4011 342° North  Level Estimated
Tue 09:51:00 AM 44.5078 18.3603 342° North  Level Estimated
Tue 09:52:00 AM 44.5959 18.3194 342° North  Level Estimated
Tue 09:53:00 AM 44.6840 18.2783 342° North  Level Estimated
Tue 09:54:00 AM 44.7721 18.2371 342° North  Level Estimated
Tue 09:55:00 AM 44.8602 18.1958 342° North  Level Estimated
Tue 09:56:00 AM 44.9483 18.1543 342° North  Level Estimated
Tue 09:57:00 AM 45.0363 18.1127 342° North  Level Estimated
Tue 09:58:00 AM 45.1244 18.0710 342° North  Level Estimated
Tue 09:59:00 AM 45.2124 18.0292 341° North  Level Estimated
Tue 10:00:00 AM 45.3004 17.9872 341° North  Level Estimated
Tue 10:01:00 AM 45.3884 17.9451 341° North  Level Estimated
Tue 10:02:00 AM 45.4764 17.9029 341° North  Level Estimated
Tue 10:03:00 AM 45.5643 17.8605 341° North  Level Estimated
Tue 10:04:00 AM 45.6523 17.8181 341° North  Level Estimated
Tue 10:05:00 AM 45.7402 17.7754 341° North  Level Estimated
Tue 10:06:00 AM 45.8281 17.7327 341° North  Level Estimated
Tue 10:07:00 AM 45.9160 17.6898 341° North  Level Estimated
Tue 10:08:00 AM 46.0039 17.6468 341° North  Level Estimated
Tue 10:09:00 AM 46.0918 17.6036 341° North  Level Estimated
Tue 10:10:00 AM 46.1796 17.5603 341° North  Level Estimated
Tue 10:11:00 AM 46.2675 17.5168 341° North  Level Estimated
Tue 10:12:00 AM 46.3553 17.4733 341° North  Level Estimated
Tue 10:13:00 AM 46.4431 17.4295 341° North  Level Estimated
Tue 10:14:00 AM 46.5309 17.3857 341° North  Level Estimated
Tue 10:15:00 AM 46.6186 17.3417 341° North  Level Estimated
Tue 10:16:00 AM 46.7064 17.2975 341° North  Level Estimated
Tue 10:17:00 AM 46.7941 17.2532 341° North  Level Estimated
Tue 10:18:00 AM 46.8818 17.2088 341° North  Level Estimated
Tue 10:19:00 AM 46.9695 17.1642 341° North  Level Estimated
Tue 10:20:00 AM 47.0572 17.1195 341° North  Level Estimated
Tue 10:21:00 AM 47.1449 17.0746 341° North  Level Estimated
Tue 10:22:00 AM 47.2325 17.0296 341° North  Level Estimated
Tue 10:23:00 AM 47.3201 16.9844 341° North  Level Estimated
Tue 10:24:00 AM 47.4078 16.9391 341° North  Level Estimated
Tue 10:25:00 AM 47.4953 16.8936 341° North  Level Estimated
Tue 10:26:00 AM 47.5829 16.8479 341° North  Level Estimated
Tue 10:27:00 AM 47.6705 16.8022 341° North  Level Estimated
Tue 10:28:00 AM 47.7580 16.7562 341° North  Level Estimated
Tue 10:29:00 AM 47.8455 16.7101 341° North  Level Estimated
Tue 10:30:00 AM 47.9330 16.6639 341° North  Level Estimated
Tue 10:31:00 AM 48.0205 16.6175 340° North  Level Estimated
Tue 10:32:00 AM 48.1080 16.5709 340° North  Level Estimated
Tue 10:33:00 AM 48.1103 16.5697 340° North  Level Estimated
Tue 10:34:00 AM 48.1103 16.5697 146° Southeast  Level Estimated
Tue 10:35:00 AM 48.1103 16.5697 146° Southeast  Level Estimated
Tue 10:36:00 AM 48.1103 16.5697 146° Southeast  Level Estimated
Tue 10:37:00 AM 48.1103 16.5697 146° Southeast  Level Estimated
Tue 10:38:00 AM 48.1103 16.5697 146° Southeast  Level Estimated
Tue 10:39:00 AM 48.1103 16.5697 146° Southeast  Level Estimated
Tue 10:40:00 AM 48.1103 16.5697 146° Southeast  Level Estimated
Tue 10:41:00 AM 48.1103 16.5697 146° Southeast  Level Estimated
Tue 10:42:00 AM 48.1103 16.5697 146° Southeast  Level Estimated
Tue 10:43:00 AM 48.1103 16.5697 146° Southeast  Level Estimated
Tue 10:44:00 AM 48.1103 16.5697 146° Southeast  Level Estimated
Tue 10:45:00 AM 48.1103 16.5697 146° Southeast  Level Estimated
Tue 10:46:00 AM 48.1103 16.5697 146° Southeast  Level Estimated
Tue 10:47:00 AM 48.1103 16.5697 146° Southeast  Level Estimated
Tue 10:48:00 AM 48.1103 16.5697 146° Southeast  Level Estimated

Login

Don't have an account? Register now (free) for customized features, flight alerts, and more!